sensor_id;sensor_type;location;lat;lon;timestamp;pressure;altitude;pressure_sealevel;temperature
71807;BMP280;59655;42.590;23.364;2023-10-31T00:01:05;91696.97;;;12.92
71807;BMP280;59655;42.590;23.364;2023-10-31T00:03:31;91688.41;;;12.94
71807;BMP280;59655;42.590;23.364;2023-10-31T00:05:57;91686.88;;;12.91
71807;BMP280;59655;42.590;23.364;2023-10-31T00:08:22;91689.75;;;12.85
71807;BMP280;59655;42.590;23.364;2023-10-31T00:10:49;91689.22;;;12.87
71807;BMP280;59655;42.590;23.364;2023-10-31T00:13:15;91686.22;;;12.83
71807;BMP280;59655;42.590;23.364;2023-10-31T00:15:40;91682.13;;;12.82
71807;BMP280;59655;42.590;23.364;2023-10-31T00:18:06;91685.66;;;12.84
71807;BMP280;59655;42.590;23.364;2023-10-31T00:20:31;91676.56;;;12.87
71807;BMP280;59655;42.590;23.364;2023-10-31T00:22:56;91675.41;;;12.81
71807;BMP280;59655;42.590;23.364;2023-10-31T00:25:22;91670.63;;;12.79
71807;BMP280;59655;42.590;23.364;2023-10-31T00:27:47;91665.84;;;12.78
71807;BMP280;59655;42.590;23.364;2023-10-31T00:30:13;91668.50;;;12.78
71807;BMP280;59655;42.590;23.364;2023-10-31T00:32:38;91663.72;;;12.76
71807;BMP280;59655;42.590;23.364;2023-10-31T00:35:04;91659.56;;;12.65
71807;BMP280;59655;42.590;23.364;2023-10-31T00:37:29;91661.84;;;12.61
71807;BMP280;59655;42.590;23.364;2023-10-31T00:39:55;91661.31;;;12.63
71807;BMP280;59655;42.590;23.364;2023-10-31T00:42:20;91668.06;;;12.64
71807;BMP280;59655;42.590;23.364;2023-10-31T00:44:46;91652.78;;;12.64
71807;BMP280;59655;42.590;23.364;2023-10-31T00:47:11;91647.75;;;12.51
71807;BMP280;59655;42.590;23.364;2023-10-31T00:49:36;91651.75;;;12.35
71807;BMP280;59655;42.590;23.364;2023-10-31T00:52:02;91654.72;;;12.39
71807;BMP280;59655;42.590;23.364;2023-10-31T00:54:28;91645.44;;;12.47
71807;BMP280;59655;42.590;23.364;2023-10-31T00:56:53;91654.16;;;12.48
71807;BMP280;59655;42.590;23.364;2023-10-31T00:59:18;91655.03;;;12.50
71807;BMP280;59655;42.590;23.364;2023-10-31T01:01:44;91653.59;;;12.49
71807;BMP280;59655;42.590;23.364;2023-10-31T01:04:10;91647.31;;;12.37
71807;BMP280;59655;42.590;23.364;2023-10-31T01:06:42;91636.28;;;12.41
71807;BMP280;59655;42.590;23.364;2023-10-31T01:09:08;91635.41;;;12.38
71807;BMP280;59655;42.590;23.364;2023-10-31T01:11:34;91632.03;;;12.38
71807;BMP280;59655;42.590;23.364;2023-10-31T01:13:59;91633.69;;;12.25
71807;BMP280;59655;42.590;23.364;2023-10-31T01:16:25;91627.16;;;12.19
71807;BMP280;59655;42.590;23.364;2023-10-31T01:18:50;91631.94;;;12.20
71807;BMP280;59655;42.590;23.364;2023-10-31T01:21:16;91629.78;;;12.26
71807;BMP280;59655;42.590;23.364;2023-10-31T01:23:41;91617.72;;;12.25
71807;BMP280;59655;42.590;23.364;2023-10-31T01:26:06;91622.94;;;12.16
71807;BMP280;59655;42.590;23.364;2023-10-31T01:28:32;91626.34;;;12.09
71807;BMP280;59655;42.590;23.364;2023-10-31T01:30:57;91625.94;;;12.20
71807;BMP280;59655;42.590;23.364;2023-10-31T01:33:23;91613.50;;;12.22
71807;BMP280;59655;42.590;23.364;2023-10-31T01:35:48;91616.50;;;12.19
71807;BMP280;59655;42.590;23.364;2023-10-31T01:38:13;91613.31;;;12.20
71807;BMP280;59655;42.590;23.364;2023-10-31T01:40:39;91612.81;;;12.22
71807;BMP280;59655;42.590;23.364;2023-10-31T01:43:04;91616.88;;;12.23
71807;BMP280;59655;42.590;23.364;2023-10-31T01:45:30;91614.59;;;12.19
71807;BMP280;59655;42.590;23.364;2023-10-31T01:47:55;91618.25;;;12.24
71807;BMP280;59655;42.590;23.364;2023-10-31T01:50:21;91615.81;;;12.18
71807;BMP280;59655;42.590;23.364;2023-10-31T01:52:47;91613.00;;;12.16
71807;BMP280;59655;42.590;23.364;2023-10-31T01:55:13;91616.03;;;12.13
71807;BMP280;59655;42.590;23.364;2023-10-31T01:57:39;91617.81;;;12.10
71807;BMP280;59655;42.590;23.364;2023-10-31T02:00:06;91620.34;;;12.08
71807;BMP280;59655;42.590;23.364;2023-10-31T02:02:33;91620.13;;;12.14
71807;BMP280;59655;42.590;23.364;2023-10-31T02:05:00;91612.84;;;12.14
71807;BMP280;59655;42.590;23.364;2023-10-31T02:07:25;91607.63;;;12.24
71807;BMP280;59655;42.590;23.364;2023-10-31T02:09:50;91605.13;;;12.26
71807;BMP280;59655;42.590;23.364;2023-10-31T02:12:36;91595.19;;;12.26
71807;BMP280;59655;42.590;23.364;2023-10-31T02:15:03;91593.53;;;12.14
71807;BMP280;59655;42.590;23.364;2023-10-31T02:17:29;91606.44;;;12.17
71807;BMP280;59655;42.590;23.364;2023-10-31T02:19:55;91600.97;;;12.15
71807;BMP280;59655;42.590;23.364;2023-10-31T02:22:21;91596.72;;;12.12
71807;BMP280;59655;42.590;23.364;2023-10-31T02:24:46;91594.78;;;12.05
71807;BMP280;59655;42.590;23.364;2023-10-31T02:27:12;91591.13;;;12.00
71807;BMP280;59655;42.590;23.364;2023-10-31T02:29:39;91595.53;;;12.05
71807;BMP280;59655;42.590;23.364;2023-10-31T02:32:04;91597.31;;;11.95
71807;BMP280;59655;42.590;23.364;2023-10-31T02:34:30;91588.28;;;11.98
71807;BMP280;59655;42.590;23.364;2023-10-31T02:36:55;91593.28;;;11.94
71807;BMP280;59655;42.590;23.364;2023-10-31T02:39:21;91588.50;;;11.93
71807;BMP280;59655;42.590;23.364;2023-10-31T02:41:47;91591.50;;;11.89
71807;BMP280;59655;42.590;23.364;2023-10-31T02:44:14;91586.72;;;11.88
71807;BMP280;59655;42.590;23.364;2023-10-31T02:46:40;91586.53;;;11.93
71807;BMP280;59655;42.590;23.364;2023-10-31T02:49:05;91586.03;;;11.87
71807;BMP280;59655;42.590;23.364;2023-10-31T02:51:31;91581.91;;;11.94
71807;BMP280;59655;42.590;23.364;2023-10-31T02:53:56;91587.78;;;11.92
71807;BMP280;59655;42.590;23.364;2023-10-31T02:56:21;91598.97;;;11.91
71807;BMP280;59655;42.590;23.364;2023-10-31T02:58:48;91585.88;;;11.85
71807;BMP280;59655;42.590;23.364;2023-10-31T03:01:13;91578.22;;;11.89
71807;BMP280;59655;42.590;23.364;2023-10-31T03:03:39;91581.47;;;11.80
71807;BMP280;59655;42.590;23.364;2023-10-31T03:06:05;91581.41;;;11.88
71807;BMP280;59655;42.590;23.364;2023-10-31T03:08:30;91585.88;;;11.85
71807;BMP280;59655;42.590;23.364;2023-10-31T03:10:56;91585.53;;;11.81
71807;BMP280;59655;42.590;23.364;2023-10-31T03:13:21;91574.53;;;11.84
71807;BMP280;59655;42.590;23.364;2023-10-31T03:15:47;91581.22;;;11.93
71807;BMP280;59655;42.590;23.364;2023-10-31T03:18:13;91577.47;;;11.96
71807;BMP280;59655;42.590;23.364;2023-10-31T03:20:39;91583.97;;;12.03
71807;BMP280;59655;42.590;23.364;2023-10-31T03:23:05;91575.53;;;11.97
71807;BMP280;59655;42.590;23.364;2023-10-31T03:25:30;91572.72;;;11.95
71807;BMP280;59655;42.590;23.364;2023-10-31T03:27:56;91570.25;;;11.89
71807;BMP280;59655;42.590;23.364;2023-10-31T03:30:21;91575.53;;;11.97
71807;BMP280;59655;42.590;23.364;2023-10-31T03:32:47;91575.72;;;11.91
71807;BMP280;59655;42.590;23.364;2023-10-31T03:35:12;91568.44;;;11.92
71807;BMP280;59655;42.590;23.364;2023-10-31T03:37:38;91566.53;;;11.92
71807;BMP280;59655;42.590;23.364;2023-10-31T03:40:08;91558.41;;;11.82
71807;BMP280;59655;42.590;23.364;2023-10-31T03:42:33;91556.84;;;11.79
71807;BMP280;59655;42.590;23.364;2023-10-31T03:44:59;91557.47;;;11.88
71807;BMP280;59655;42.590;23.364;2023-10-31T03:47:24;91555.50;;;11.88
71807;BMP280;59655;42.590;23.364;2023-10-31T03:49:50;91551.47;;;11.87
71807;BMP280;59655;42.590;23.364;2023-10-31T03:52:15;91547.25;;;11.76
71807;BMP280;59655;42.590;23.364;2023-10-31T03:54:41;91550.97;;;11.81
71807;BMP280;59655;42.590;23.364;2023-10-31T03:57:06;91558.81;;;11.79
71807;BMP280;59655;42.590;23.364;2023-10-31T03:59:31;91550.72;;;11.61
71807;BMP280;59655;42.590;23.364;2023-10-31T04:01:57;91547.47;;;11.71
71807;BMP280;59655;42.590;23.364;2023-10-31T04:04:22;91550.72;;;11.61
71807;BMP280;59655;42.590;23.364;2023-10-31T04:06:48;91542.19;;;11.63
71807;BMP280;59655;42.590;23.364;2023-10-31T04:09:13;91551.47;;;11.54
71807;BMP280;59655;42.590;23.364;2023-10-31T04:11:39;91540.75;;;11.70
71807;BMP280;59655;42.590;23.364;2023-10-31T04:14:05;91548.34;;;11.73
71807;BMP280;59655;42.590;23.364;2023-10-31T04:16:31;91539.88;;;11.67
71807;BMP280;59655;42.590;23.364;2023-10-31T04:18:57;91553.00;;;11.65
71807;BMP280;59655;42.590;23.364;2023-10-31T04:21:22;91544.50;;;11.59
71807;BMP280;59655;42.590;23.364;2023-10-31T04:23:47;91538.16;;;11.54
71807;BMP280;59655;42.590;23.364;2023-10-31T04:26:13;91520.59;;;11.59
71807;BMP280;59655;42.590;23.364;2023-10-31T04:28:39;91545.63;;;11.56
71807;BMP280;59655;42.590;23.364;2023-10-31T04:31:04;91534.47;;;11.57
71807;BMP280;59655;42.590;23.364;2023-10-31T04:33:30;91518.84;;;11.61
71807;BMP280;59655;42.590;23.364;2023-10-31T04:35:55;91531.06;;;11.57
71807;BMP280;59655;42.590;23.364;2023-10-31T04:38:20;91522.72;;;11.60
71807;BMP280;59655;42.590;23.364;2023-10-31T04:40:46;91523.06;;;11.65
71807;BMP280;59655;42.590;23.364;2023-10-31T04:43:11;91520.06;;;11.60
71807;BMP280;59655;42.590;23.364;2023-10-31T04:45:37;91525.19;;;11.58
71807;BMP280;59655;42.590;23.364;2023-10-31T04:48:02;91524.91;;;11.47
71807;BMP280;59655;42.590;23.364;2023-10-31T04:50:28;91534.16;;;11.38
71807;BMP280;59655;42.590;23.364;2023-10-31T04:52:53;91537.19;;;11.42
71807;BMP280;59655;42.590;23.364;2023-10-31T04:55:19;91542.84;;;11.38
71807;BMP280;59655;42.590;23.364;2023-10-31T04:57:44;91550.63;;;11.36
71807;BMP280;59655;42.590;23.364;2023-10-31T05:00:10;91540.19;;;11.38
71807;BMP280;59655;42.590;23.364;2023-10-31T05:02:35;91554.84;;;11.47
71807;BMP280;59655;42.590;23.364;2023-10-31T05:05:01;91550.47;;;11.42
71807;BMP280;59655;42.590;23.364;2023-10-31T05:07:27;91552.22;;;11.39
71807;BMP280;59655;42.590;23.364;2023-10-31T05:09:52;91554.31;;;11.49
71807;BMP280;59655;42.590;23.364;2023-10-31T05:12:17;91555.56;;;11.48
71807;BMP280;59655;42.590;23.364;2023-10-31T05:14:43;91551.50;;;11.39
71807;BMP280;59655;42.590;23.364;2023-10-31T05:17:08;91562.88;;;11.32
71807;BMP280;59655;42.590;23.364;2023-10-31T05:19:33;91544.28;;;11.32
71807;BMP280;59655;42.590;23.364;2023-10-31T05:21:59;91560.44;;;11.18
71807;BMP280;59655;42.590;23.364;2023-10-31T05:24:24;91539.88;;;11.27
71807;BMP280;59655;42.590;23.364;2023-10-31T05:26:50;91551.22;;;11.19
71807;BMP280;59655;42.590;23.364;2023-10-31T05:29:15;91549.22;;;11.28
71807;BMP280;59655;42.590;23.364;2023-10-31T05:31:41;91554.41;;;11.18
71807;BMP280;59655;42.590;23.364;2023-10-31T05:34:08;91555.28;;;11.21
71807;BMP280;59655;42.590;23.364;2023-10-31T05:36:33;91554.25;;;11.16
71807;BMP280;59655;42.590;23.364;2023-10-31T05:38:59;91556.69;;;11.22
71807;BMP280;59655;42.590;23.364;2023-10-31T05:41:24;91561.97;;;11.37
71807;BMP280;59655;42.590;23.364;2023-10-31T05:43:49;91558.78;;;11.38
71807;BMP280;59655;42.590;23.364;2023-10-31T05:46:15;91563.22;;;11.28
71807;BMP280;59655;42.590;23.364;2023-10-31T05:48:42;91576.66;;;11.38
71807;BMP280;59655;42.590;23.364;2023-10-31T05:51:15;91556.63;;;11.45
71807;BMP280;59655;42.590;23.364;2023-10-31T05:53:41;91561.03;;;11.50
71807;BMP280;59655;42.590;23.364;2023-10-31T05:56:08;91565.47;;;11.47
71807;BMP280;59655;42.590;23.364;2023-10-31T05:58:33;91557.31;;;11.45
71807;BMP280;59655;42.590;23.364;2023-10-31T06:00:59;91556.41;;;11.50
71807;BMP280;59655;42.590;23.364;2023-10-31T06:03:25;91556.81;;;11.47
71807;BMP280;59655;42.590;23.364;2023-10-31T06:05:50;91551.44;;;11.62
71807;BMP280;59655;42.590;23.364;2023-10-31T06:08:15;91571.41;;;11.71
71807;BMP280;59655;42.590;23.364;2023-10-31T06:10:41;91567.66;;;11.74
71807;BMP280;59655;42.590;23.364;2023-10-31T06:13:06;91562.50;;;11.76
71807;BMP280;59655;42.590;23.364;2023-10-31T06:15:32;91565.34;;;11.78
71807;BMP280;59655;42.590;23.364;2023-10-31T06:17:57;91578.91;;;11.90
71807;BMP280;59655;42.590;23.364;2023-10-31T06:20:23;91581.72;;;11.99
71807;BMP280;59655;42.590;23.364;2023-10-31T06:22:49;91581.00;;;11.99
71807;BMP280;59655;42.590;23.364;2023-10-31T06:25:14;91583.94;;;12.11
71807;BMP280;59655;42.590;23.364;2023-10-31T06:27:39;91569.75;;;12.16
71807;BMP280;59655;42.590;23.364;2023-10-31T06:30:05;91567.41;;;12.20
71807;BMP280;59655;42.590;23.364;2023-10-31T06:32:31;91569.31;;;12.27
71807;BMP280;59655;42.590;23.364;2023-10-31T06:34:56;91570.72;;;12.28
71807;BMP280;59655;42.590;23.364;2023-10-31T06:37:22;91583.84;;;12.26
71807;BMP280;59655;42.590;23.364;2023-10-31T06:39:47;91583.50;;;12.30
71807;BMP280;59655;42.590;23.364;2023-10-31T06:42:12;91590.25;;;12.31
71807;BMP280;59655;42.590;23.364;2023-10-31T06:44:38;91593.03;;;12.33
71807;BMP280;59655;42.590;23.364;2023-10-31T06:47:03;91590.56;;;12.35
71807;BMP280;59655;42.590;23.364;2023-10-31T06:49:29;91586.81;;;12.38
71807;BMP280;59655;42.590;23.364;2023-10-31T06:51:54;91582.88;;;12.39
71807;BMP280;59655;42.590;23.364;2023-10-31T06:54:19;91585.72;;;12.41
71807;BMP280;59655;42.590;23.364;2023-10-31T06:56:45;91578.25;;;12.39
71807;BMP280;59655;42.590;23.364;2023-10-31T06:59:10;91579.69;;;12.40
71807;BMP280;59655;42.590;23.364;2023-10-31T07:01:36;91568.88;;;12.38
71807;BMP280;59655;42.590;23.364;2023-10-31T07:04:03;91575.06;;;12.41
71807;BMP280;59655;42.590;23.364;2023-10-31T07:06:28;91577.03;;;12.40
71807;BMP280;59655;42.590;23.364;2023-10-31T07:08:53;91577.03;;;12.40
71807;BMP280;59655;42.590;23.364;2023-10-31T07:11:19;91575.78;;;12.41
71807;BMP280;59655;42.590;23.364;2023-10-31T07:13:44;91578.06;;;12.45
71807;BMP280;59655;42.590;23.364;2023-10-31T07:16:10;91568.59;;;12.52
71807;BMP280;59655;42.590;23.364;2023-10-31T07:18:35;91567.13;;;12.58
71807;BMP280;59655;42.590;23.364;2023-10-31T07:21:00;91564.09;;;12.62
71807;BMP280;59655;42.590;23.364;2023-10-31T07:23:26;91567.97;;;12.61
71807;BMP280;59655;42.590;23.364;2023-10-31T07:25:51;91566.38;;;12.65
71807;BMP280;59655;42.590;23.364;2023-10-31T07:28:17;91567.91;;;12.68
71807;BMP280;59655;42.590;23.364;2023-10-31T07:30:42;91582.81;;;12.71
71807;BMP280;59655;42.590;23.364;2023-10-31T07:33:08;91579.41;;;12.79
71807;BMP280;59655;42.590;23.364;2023-10-31T07:35:33;91577.44;;;12.79
71807;BMP280;59655;42.590;23.364;2023-10-31T07:37:59;91584.13;;;12.80
71807;BMP280;59655;42.590;23.364;2023-10-31T07:40:24;91568.88;;;12.81
71807;BMP280;59655;42.590;23.364;2023-10-31T07:42:49;91574.53;;;12.85
71807;BMP280;59655;42.590;23.364;2023-10-31T07:45:15;91572.03;;;12.87
71807;BMP280;59655;42.590;23.364;2023-10-31T07:47:40;91572.72;;;12.87
71807;BMP280;59655;42.590;23.364;2023-10-31T07:50:06;91557.44;;;12.88
71807;BMP280;59655;42.590;23.364;2023-10-31T07:52:31;91563.50;;;12.88
71807;BMP280;59655;42.590;23.364;2023-10-31T07:54:57;91562.56;;;12.93
71807;BMP280;59655;42.590;23.364;2023-10-31T07:57:22;91552.03;;;12.95
71807;BMP280;59655;42.590;23.364;2023-10-31T07:59:47;91552.78;;;12.96
71807;BMP280;59655;42.590;23.364;2023-10-31T08:02:13;91552.22;;;12.98
71807;BMP280;59655;42.590;23.364;2023-10-31T08:04:38;91545.09;;;13.00
71807;BMP280;59655;42.590;23.364;2023-10-31T08:07:04;91540.44;;;13.01
71807;BMP280;59655;42.590;23.364;2023-10-31T08:09:30;91540.63;;;13.03
71807;BMP280;59655;42.590;23.364;2023-10-31T08:11:55;91538.13;;;13.05
71807;BMP280;59655;42.590;23.364;2023-10-31T08:14:20;91540.94;;;13.07
71807;BMP280;59655;42.590;23.364;2023-10-31T08:16:47;91537.00;;;13.08
71807;BMP280;59655;42.590;23.364;2023-10-31T08:19:13;91538.56;;;13.11
71807;BMP280;59655;42.590;23.364;2023-10-31T08:21:39;91535.50;;;13.14
71807;BMP280;59655;42.590;23.364;2023-10-31T08:24:07;91541.88;;;13.19
71807;BMP280;59655;42.590;23.364;2023-10-31T08:26:32;91533.34;;;13.21
71807;BMP280;59655;42.590;23.364;2023-10-31T08:28:58;91546.25;;;13.24
71807;BMP280;59655;42.590;23.364;2023-10-31T08:31:24;91536.28;;;13.25
71807;BMP280;59655;42.590;23.364;2023-10-31T08:33:49;91530.41;;;13.26
71807;BMP280;59655;42.590;23.364;2023-10-31T08:36:15;91521.31;;;13.29
71807;BMP280;59655;42.590;23.364;2023-10-31T08:38:40;91516.97;;;13.34
71807;BMP280;59655;42.590;23.364;2023-10-31T08:41:06;91517.69;;;13.34
71807;BMP280;59655;42.590;23.364;2023-10-31T08:43:33;91521.25;;;13.37
71807;BMP280;59655;42.590;23.364;2023-10-31T08:45:58;91510.16;;;13.41
71807;BMP280;59655;42.590;23.364;2023-10-31T08:48:23;91509.06;;;13.44
71807;BMP280;59655;42.590;23.364;2023-10-31T08:50:49;91511.03;;;13.43
71807;BMP280;59655;42.590;23.364;2023-10-31T08:53:15;91509.22;;;13.46
71807;BMP280;59655;42.590;23.364;2023-10-31T08:55:40;91498.69;;;13.48
71807;BMP280;59655;42.590;23.364;2023-10-31T08:58:12;91496.75;;;13.48
71807;BMP280;59655;42.590;23.364;2023-10-31T09:00:43;91480.19;;;13.50
71807;BMP280;59655;42.590;23.364;2023-10-31T09:03:09;91477.84;;;13.54
71807;BMP280;59655;42.590;23.364;2023-10-31T09:05:34;91469.00;;;13.61
71807;BMP280;59655;42.590;23.364;2023-10-31T09:08:00;91472.56;;;13.64
71807;BMP280;59655;42.590;23.364;2023-10-31T09:10:25;91471.84;;;13.63
71807;BMP280;59655;42.590;23.364;2023-10-31T09:12:51;91468.63;;;13.65
71807;BMP280;59655;42.590;23.364;2023-10-31T09:15:17;91465.56;;;13.68
71807;BMP280;59655;42.590;23.364;2023-10-31T09:17:44;91465.00;;;13.70
71807;BMP280;59655;42.590;23.364;2023-10-31T09:20:09;91462.50;;;13.72
71807;BMP280;59655;42.590;23.364;2023-10-31T09:22:36;91455.31;;;13.74
71807;BMP280;59655;42.590;23.364;2023-10-31T09:25:02;91455.19;;;13.72
71807;BMP280;59655;42.590;23.364;2023-10-31T09:27:27;91448.91;;;13.77
71807;BMP280;59655;42.590;23.364;2023-10-31T09:29:53;91440.38;;;13.89
71807;BMP280;59655;42.590;23.364;2023-10-31T09:32:18;91453.25;;;13.92
71807;BMP280;59655;42.590;23.364;2023-10-31T09:34:44;91442.19;;;13.96
71807;BMP280;59655;42.590;23.364;2023-10-31T09:37:09;91437.88;;;14.00
71807;BMP280;59655;42.590;23.364;2023-10-31T09:39:34;91432.38;;;13.98
71807;BMP280;59655;42.590;23.364;2023-10-31T09:42:00;91433.22;;;14.01
71807;BMP280;59655;42.590;23.364;2023-10-31T09:44:25;91433.81;;;14.09
71807;BMP280;59655;42.590;23.364;2023-10-31T09:46:51;91431.88;;;14.10
71807;BMP280;59655;42.590;23.364;2023-10-31T09:49:18;91427.09;;;14.18
71807;BMP280;59655;42.590;23.364;2023-10-31T09:51:46;91415.84;;;14.19
71807;BMP280;59655;42.590;23.364;2023-10-31T09:54:12;91411.78;;;14.18
71807;BMP280;59655;42.590;23.364;2023-10-31T09:56:41;91406.16;;;14.24
71807;BMP280;59655;42.590;23.364;2023-10-31T09:59:07;91404.75;;;14.33
71807;BMP280;59655;42.590;23.364;2023-10-31T10:01:32;91390.97;;;14.36
71807;BMP280;59655;42.590;23.364;2023-10-31T10:03:58;91384.81;;;14.34
71807;BMP280;59655;42.590;23.364;2023-10-31T10:06:24;91382.97;;;14.36
71807;BMP280;59655;42.590;23.364;2023-10-31T10:08:50;91391.72;;;14.46
71807;BMP280;59655;42.590;23.364;2023-10-31T10:11:15;91392.84;;;14.53
71807;BMP280;59655;42.590;23.364;2023-10-31T10:13:41;91369.63;;;14.65
71807;BMP280;59655;42.590;23.364;2023-10-31T10:16:07;91371.59;;;14.65
71807;BMP280;59655;42.590;23.364;2023-10-31T10:18:34;91373.69;;;14.66
71807;BMP280;59655;42.590;23.364;2023-10-31T10:21:02;91363.16;;;14.68
71807;BMP280;59655;42.590;23.364;2023-10-31T10:23:28;91366.38;;;14.77
71807;BMP280;59655;42.590;23.364;2023-10-31T10:25:55;91367.22;;;14.89
71807;BMP280;59655;42.590;23.364;2023-10-31T10:28:21;91359.06;;;14.87
71807;BMP280;59655;42.590;23.364;2023-10-31T10:30:47;91357.34;;;14.91
71807;BMP280;59655;42.590;23.364;2023-10-31T10:33:14;91358.44;;;14.98
71807;BMP280;59655;42.590;23.364;2023-10-31T10:35:39;91347.91;;;15.00
71807;BMP280;59655;42.590;23.364;2023-10-31T10:38:12;91335.38;;;15.03
71807;BMP280;59655;42.590;23.364;2023-10-31T10:40:40;91344.47;;;15.09
71807;BMP280;59655;42.590;23.364;2023-10-31T10:43:13;91337.31;;;15.12
71807;BMP280;59655;42.590;23.364;2023-10-31T10:45:42;91342.63;;;15.22
71807;BMP280;59655;42.590;23.364;2023-10-31T10:48:13;91338.78;;;15.25
71807;BMP280;59655;42.590;23.364;2023-10-31T10:50:42;91328.94;;;15.27
71807;BMP280;59655;42.590;23.364;2023-10-31T10:53:15;91328.94;;;15.27
71807;BMP280;59655;42.590;23.364;2023-10-31T10:55:46;91324.88;;;15.26
71807;BMP280;59655;42.590;23.364;2023-10-31T11:00:58;91311.78;;;15.30
71807;BMP280;59655;42.590;23.364;2023-10-31T11:03:24;91308.78;;;15.36
71807;BMP280;59655;42.590;23.364;2023-10-31T11:05:54;91293.00;;;15.40
71807;BMP280;59655;42.590;23.364;2023-10-31T11:08:23;91289.06;;;15.41
71807;BMP280;59655;42.590;23.364;2023-10-31T11:10:49;91282.97;;;15.50
71807;BMP280;59655;42.590;23.364;2023-10-31T11:13:15;91286.47;;;15.53
71807;BMP280;59655;42.590;23.364;2023-10-31T11:15:41;91279.50;;;15.59
71807;BMP280;59655;42.590;23.364;2023-10-31T11:18:07;91280.47;;;15.64
71807;BMP280;59655;42.590;23.364;2023-10-31T11:20:34;91282.94;;;15.72
71807;BMP280;59655;42.590;23.364;2023-10-31T11:23:01;91280.50;;;15.76
71807;BMP280;59655;42.590;23.364;2023-10-31T11:25:31;91273.13;;;15.86
71807;BMP280;59655;42.590;23.364;2023-10-31T11:27:57;91266.13;;;16.02
71807;BMP280;59655;42.590;23.364;2023-10-31T11:30:35;91264.19;;;15.93
71807;BMP280;59655;42.590;23.364;2023-10-31T11:33:01;91270.69;;;15.90
71807;BMP280;59655;42.590;23.364;2023-10-31T11:35:33;91259.66;;;15.96
71807;BMP280;59655;42.590;23.364;2023-10-31T11:38:03;91263.50;;;15.93
71807;BMP280;59655;42.590;23.364;2023-10-31T11:40:57;91264.31;;;15.95
71807;BMP280;59655;42.590;23.364;2023-10-31T11:43:23;91249.41;;;15.92
71807;BMP280;59655;42.590;23.364;2023-10-31T11:45:48;91246.75;;;15.92
71807;BMP280;59655;42.590;23.364;2023-10-31T11:48:15;91244.19;;;15.94
71807;BMP280;59655;42.590;23.364;2023-10-31T11:50:41;91237.56;;;15.95
71807;BMP280;59655;42.590;23.364;2023-10-31T11:53:11;91237.56;;;15.95
71807;BMP280;59655;42.590;23.364;2023-10-31T11:55:42;91233.94;;;15.91
71807;BMP280;59655;42.590;23.364;2023-10-31T11:58:26;91229.88;;;15.90
71807;BMP280;59655;42.590;23.364;2023-10-31T12:01:00;91225.06;;;15.88
71807;BMP280;59655;42.590;23.364;2023-10-31T12:03:25;91216.94;;;15.86
71807;BMP280;59655;42.590;23.364;2023-10-31T12:05:55;91225.22;;;15.90
71807;BMP280;59655;42.590;23.364;2023-10-31T12:08:27;91219.28;;;15.92
71807;BMP280;59655;42.590;23.364;2023-10-31T12:10:53;91222.75;;;15.94
71807;BMP280;59655;42.590;23.364;2023-10-31T12:13:18;91207.44;;;15.95
71807;BMP280;59655;42.590;23.364;2023-10-31T12:15:53;91208.25;;;15.97
71807;BMP280;59655;42.590;23.364;2023-10-31T12:18:18;91197.22;;;16.03
71807;BMP280;59655;42.590;23.364;2023-10-31T12:20:48;91202.34;;;16.10
71807;BMP280;59655;42.590;23.364;2023-10-31T12:23:14;91202.00;;;16.16
71807;BMP280;59655;42.590;23.364;2023-10-31T12:25:53;91214.50;;;16.35
71807;BMP280;59655;42.590;23.364;2023-10-31T12:28:23;91202.72;;;16.52
71807;BMP280;59655;42.590;23.364;2023-10-31T12:30:50;91200.28;;;16.44
71807;BMP280;59655;42.590;23.364;2023-10-31T12:33:17;91194.38;;;16.46
71807;BMP280;59655;42.590;23.364;2023-10-31T12:35:43;91185.38;;;16.41
71807;BMP280;59655;42.590;23.364;2023-10-31T12:38:13;91193.53;;;16.43
71807;BMP280;59655;42.590;23.364;2023-10-31T12:40:43;91186.91;;;16.44
71807;BMP280;59655;42.590;23.364;2023-10-31T12:43:09;91192.28;;;16.56
71807;BMP280;59655;42.590;23.364;2023-10-31T12:45:35;91184.25;;;16.56
71807;BMP280;59655;42.590;23.364;2023-10-31T12:48:01;91176.78;;;16.66
71807;BMP280;59655;42.590;23.364;2023-10-31T12:50:28;91174.75;;;16.78
71807;BMP280;59655;42.590;23.364;2023-10-31T12:52:54;91171.69;;;17.08
71807;BMP280;59655;42.590;23.364;2023-10-31T12:55:26;91156.34;;;16.96
71807;BMP280;59655;42.590;23.364;2023-10-31T12:57:52;91157.53;;;16.82
71807;BMP280;59655;42.590;23.364;2023-10-31T13:00:19;91165.81;;;16.74
71807;BMP280;59655;42.590;23.364;2023-10-31T13:02:50;91158.03;;;16.66
71807;BMP280;59655;42.590;23.364;2023-10-31T13:05:16;91160.72;;;16.66
71807;BMP280;59655;42.590;23.364;2023-10-31T13:07:49;91154.06;;;16.67
71807;BMP280;59655;42.590;23.364;2023-10-31T13:10:16;91153.81;;;16.63
71807;BMP280;59655;42.590;23.364;2023-10-31T13:12:48;91157.56;;;16.58
71807;BMP280;59655;42.590;23.364;2023-10-31T13:15:17;91162.44;;;16.62
71807;BMP280;59655;42.590;23.364;2023-10-31T13:17:46;91158.59;;;16.53
71807;BMP280;59655;42.590;23.364;2023-10-31T13:20:13;91172.59;;;16.51
71807;BMP280;59655;42.590;23.364;2023-10-31T13:22:40;91168.28;;;16.46
71807;BMP280;59655;42.590;23.364;2023-10-31T13:25:07;91152.81;;;16.45
71807;BMP280;59655;42.590;23.364;2023-10-31T13:27:35;91160.84;;;16.45
71807;BMP280;59655;42.590;23.364;2023-10-31T13:30:04;91161.41;;;16.55
71807;BMP280;59655;42.590;23.364;2023-10-31T13:32:30;91156.63;;;16.53
71807;BMP280;59655;42.590;23.364;2023-10-31T13:34:56;91157.91;;;16.52
71807;BMP280;59655;42.590;23.364;2023-10-31T13:37:21;91148.81;;;16.58
71807;BMP280;59655;42.590;23.364;2023-10-31T13:39:47;91152.41;;;16.74
71807;BMP280;59655;42.590;23.364;2023-10-31T13:42:13;91153.22;;;16.76
71807;BMP280;59655;42.590;23.364;2023-10-31T13:44:42;91148.22;;;16.83
71807;BMP280;59655;42.590;23.364;2023-10-31T13:47:08;91145.88;;;16.89
71807;BMP280;59655;42.590;23.364;2023-10-31T13:49:34;91151.56;;;16.95
71807;BMP280;59655;42.590;23.364;2023-10-31T13:52:00;91142.56;;;17.02
71807;BMP280;59655;42.590;23.364;2023-10-31T13:54:25;91137.44;;;17.06